| time (UTC) | temp C | wind direction | speed KPH | gust KPH | rain 1hr cm | rain 24hr cm | rain mn cm | humidity % | barometer mb |
| 20260510210056 | 11 | 158 | 0.0 | 3.2 | 0.00 | 0.89 | 0.89 | 55 | 1015.5 |
| 20260510204556 | 11 | 178 | 0.0 | 0.0 | 0.00 | 1.12 | 0.89 | 55 | 1015.6 |
| 20260510203053 | 11 | 188 | 0.0 | 6.4 | 0.00 | 1.12 | 0.89 | 54 | 1015.4 |
| 20260510201554 | 11 | 206 | 0.0 | 0.0 | 0.00 | 1.12 | 0.89 | 53 | 1015.2 |
| 20260510200048 | 11 | 195 | 0.0 | 9.7 | 0.00 | 1.12 | 0.89 | 51 | 1014.7 |
| 20260510194550 | 12 | 190 | 0.0 | 8.0 | 0.00 | 1.12 | 0.89 | 50 | 1014.5 |
| 20260510193050 | 12 | 168 | 0.0 | 9.7 | 0.00 | 1.12 | 0.89 | 50 | 1014.4 |
| 20260510191548 | 12 | 193 | 0.0 | 4.8 | 0.00 | 1.12 | 0.89 | 49 | 1014.2 |
| 20260510190044 | 12 | 173 | 1.6 | 17.7 | 0.00 | 1.12 | 0.89 | 47 | 1013.9 |
| 20260510184543 | 12 | 174 | 0.0 | 16.1 | 0.00 | 1.42 | 0.89 | 46 | 1013.7 |
| 20260510183046 | 13 | 193 | 4.8 | 24.1 | 0.00 | 1.42 | 0.89 | 43 | 1013.6 |
| 20260510181546 | 13 | 207 | 8.0 | 32.2 | 0.00 | 1.42 | 0.89 | 34 | 1013.4 |
| 20260510180045 | 14 | 185 | 9.7 | 32.2 | 0.00 | 1.42 | 0.89 | 31 | 1013.5 |
| 20260510174542 | 14 | 210 | 0.0 | 19.3 | 0.00 | 1.45 | 0.89 | 34 | 1013.2 |
| 20260510173041 | 14 | 158 | 1.6 | 22.5 | 0.00 | 1.45 | 0.89 | 34 | 1013.2 |
| 20260510171542 | 15 | 193 | 4.8 | 24.1 | 0.00 | 1.45 | 0.89 | 34 | 1013.2 |
| 20260510170048 | 15 | 185 | 6.4 | 27.4 | 0.00 | 1.45 | 0.89 | 32 | 1013.0 |
| 20260510164549 | 14 | 185 | 4.8 | 25.7 | 0.00 | 1.50 | 0.89 | 34 | 1013.0 |
| 20260510163038 | 13 | 170 | 9.7 | 25.7 | 0.00 | 1.50 | 0.89 | 35 | 1013.2 |
| 20260510161538 | 14 | 166 | 17.7 | 33.8 | 0.00 | 1.50 | 0.89 | 33 | 1013.4 |
| 20260510160037 | 13 | 218 | 14.5 | 38.6 | 0.00 | 1.50 | 0.89 | 32 | 1013.2 |
| 20260510154547 | 14 | 174 | 12.9 | 33.8 | 0.00 | 1.75 | 0.89 | 32 | 1013.1 |
| 20260510153036 | 14 | 196 | 8.0 | 32.2 | 0.00 | 1.75 | 0.89 | 31 | 1013.3 |
| 20260510151537 | 14 | 251 | 12.9 | 32.2 | 0.00 | 1.75 | 0.89 | 35 | 1013.5 |
| 20260510150040 | 15 | 216 | 4.8 | 25.7 | 0.03 | 1.75 | 0.89 | 35 | 1013.4 |
| 20260510144540 | 14 | 127 | 8.0 | 25.7 | 0.03 | 1.80 | 0.89 | 41 | 1013.3 |
| 20260510143036 | 13 | 197 | 3.2 | 27.4 | 0.03 | 1.80 | 0.89 | 46 | 1013.7 |
| 20260510141531 | 12 | 191 | 4.8 | 20.9 | 0.03 | 1.80 | 0.89 | 51 | 1013.7 |
| 20260510140030 | 12 | 173 | 0.0 | 29.0 | 0.00 | 1.78 | 0.86 | 51 | 1013.5 |
| 20260510134530 | 13 | 112 | 4.8 | 29.0 | 0.00 | 1.78 | 0.86 | 47 | 1013.3 |
| 20260510133029 | 14 | 220 | 9.7 | 33.8 | 0.00 | 1.78 | 0.86 | 46 | 1013.3 |
| 20260510131541 | 13 | 152 | 4.8 | 25.7 | 0.00 | 1.78 | 0.86 | 47 | 1013.2 |
| 20260510130028 | 13 | 171 | 1.6 | 27.4 | 0.00 | 1.78 | 0.86 | 48 | 1013.4 |
| 20260510124524 | 13 | 137 | 3.2 | 32.2 | 0.00 | 1.91 | 0.86 | 51 | 1013.3 |
| 20260510123024 | 13 | 197 | 3.2 | 33.8 | 0.00 | 1.91 | 0.86 | 52 | 1013.7 |
| 20260510121520 | 12 | 191 | 0.0 | 17.7 | 0.00 | 1.91 | 0.86 | 58 | 1013.3 |
| 20260510120019 | 12 | 181 | 0.0 | 12.9 | 0.00 | 1.91 | 0.86 | 53 | 1013.5 |
| 20260510114518 | 12 | 191 | 0.0 | 19.3 | 0.00 | 2.11 | 0.86 | 56 | 1013.6 |
| 20260510113019 | 12 | 172 | 0.0 | 22.5 | 0.00 | 2.11 | 0.86 | 57 | 1013.7 |
| 20260510111515 | 11 | 194 | 1.6 | 16.1 | 0.00 | 2.11 | 0.86 | 58 | 1013.9 |
| 20260510110012 | 11 | 152 | 0.0 | 17.7 | 0.00 | 2.11 | 0.86 | 59 | 1013.8 |
| 20260510104511 | 11 | 185 | 0.0 | 8.0 | 0.05 | 2.18 | 0.86 | 62 | 1013.7 |
| 20260510103010 | 10 | 174 | 0.0 | 6.4 | 0.58 | 2.18 | 0.86 | 62 | 1013.8 |
| 20260510101509 | 10 | 215 | 0.0 | 17.7 | 0.66 | 2.18 | 0.86 | 62 | 1014.0 |
| 20260510100010 | 10 | 206 | 0.0 | 14.5 | 0.66 | 2.18 | 0.86 | 63 | 1013.9 |
| 20260510094509 | 10 | 149 | 14.5 | 37.0 | 0.61 | 2.11 | 0.79 | 61 | 1013.5 |
| 20260510093006 | 11 | 162 | 0.0 | 16.1 | 0.13 | 1.60 | 0.28 | 62 | 1013.3 |
| 20260510091508 | 11 | 141 | 1.6 | 20.9 | 0.05 | 1.52 | 0.20 | 59 | 1013.0 |
| 20260510090006 | 11 | 168 | 4.8 | 20.9 | 0.05 | 1.52 | 0.20 | 62 | 1013.2 |
| 20260510084501 | 11 | 206 | 0.0 | 11.3 | 0.05 | 1.50 | 0.18 | 63 | 1013.4 |
| 20260510083002 | 11 | 196 | 0.0 | 12.9 | 0.03 | 1.45 | 0.15 | 62 | 1013.5 |
| 20260510081503 | 11 | 87 | 0.0 | 9.7 | 0.03 | 1.45 | 0.15 | 62 | 1013.7 |
| 20260510080106 | 11 | 207 | 0.0 | 9.7 | 0.03 | 1.45 | 0.15 | 64 | 1013.6 |
| 20260510074554 | 10 | 207 | 0.0 | 14.5 | 0.00 | 1.42 | 0.15 | 64 | 1014.0 |
| 20260510073113 | 10 | 218 | 0.0 | 0.0 | 0.00 | 1.42 | 0.15 | 64 | 1014.0 |
| 20260510071552 | 10 | 104 | 0.0 | 9.7 | 0.00 | 1.42 | 0.15 | 64 | 1013.7 |
| 20260510070056 | 10 | 148 | 0.0 | 0.0 | 0.00 | 1.42 | 0.15 | 64 | 1013.7 |
| 20260510064619 | 10 | 183 | 0.0 | 0.0 | 0.00 | 1.42 | 0.15 | 65 | 1013.7 |
| 20260510063049 | 10 | 205 | 0.0 | 1.6 | 0.00 | 1.42 | 0.15 | 64 | 1013.6 |
| 20260510061548 | 10 | 359 | 0.0 | 0.0 | 0.00 | 1.42 | 0.15 | 65 | 1013.6 |
| 20260510060047 | 9 | 359 | 0.0 | 1.6 | 0.00 | 1.42 | 0.15 | 65 | 1013.5 |
| 20260510054546 | 9 | 359 | 0.0 | 0.0 | 0.00 | 1.42 | 0.15 | 65 | 1013.4 |
| 20260510053046 | 9 | 206 | 0.0 | 1.6 | 0.00 | 1.42 | 0.15 | 64 | 1013.5 |
| 20260510051550 | 9 | 184 | 0.0 | 1.6 | 0.00 | 1.42 | 0.15 | 65 | 1013.4 |
| 20260510050041 | 9 | 219 | 0.0 | 0.0 | 0.00 | 1.42 | 0.15 | 65 | 1013.3 |
| 20260510044539 | 10 | 359 | 0.0 | 0.0 | 0.00 | 1.42 | 0.15 | 65 | 1013.3 |
| 20260510043041 | 9 | 173 | 0.0 | 1.6 | 0.00 | 1.42 | 0.15 | 65 | 1013.4 |
| 20260510041539 | 9 | 297 | 0.0 | 0.0 | 0.00 | 1.42 | 0.15 | 65 | 1013.3 |
| 20260510040044 | 9 | 200 | 0.0 | 0.0 | 0.03 | 1.42 | 0.15 | 65 | 1013.5 |
| 20260510034542 | 9 | 199 | 0.0 | 0.0 | 0.10 | 1.42 | 0.15 | 65 | 1013.5 |
| 20260510033033 | 10 | 359 | 0.0 | 0.0 | 0.10 | 1.42 | 0.15 | 65 | 1013.5 |
| 20260510031534 | 10 | 205 | 0.0 | 0.0 | 0.10 | 1.42 | 0.15 | 65 | 1013.7 |
| 20260510030033 | 10 | 249 | 0.0 | 0.0 | 0.08 | 1.42 | 0.13 | 65 | 1013.6 |
| 20260510024532 | 10 | 359 | 0.0 | 0.0 | 0.00 | 1.37 | 0.05 | 65 | 1013.5 |
| 20260510023030 | 10 | 191 | 0.0 | 0.0 | 0.03 | 1.37 | 0.05 | 65 | 1013.6 |
| 20260510021532 | 10 | 192 | 0.0 | 0.0 | 0.03 | 1.37 | 0.05 | 64 | 1013.7 |
| 20260510020031 | 10 | 173 | 0.0 | 1.6 | 0.03 | 1.37 | 0.05 | 64 | 1013.8 |
| 20260510014529 | 10 | 359 | 0.0 | 0.0 | 0.03 | 1.37 | 0.05 | 65 | 1013.6 |
| 20260510013030 | 10 | 187 | 0.0 | 0.0 | 0.00 | 1.35 | 0.03 | 65 | 1013.6 |
| 20260510011527 | 10 | 158 | 0.0 | 1.6 | 0.00 | 1.35 | 0.03 | 65 | 1013.7 |
| 20260510010027 | 10 | 192 | 0.0 | 8.0 | 0.03 | 1.35 | 0.03 | 65 | 1013.9 |
| 20260510004528 | 10 | 139 | 0.0 | 6.4 | 0.03 | 1.35 | 0.03 | 65 | 1014.1 |
| 20260510003029 | 10 | 185 | 0.0 | 12.9 | 0.03 | 1.35 | 0.03 | 65 | 1014.0 |
| 20260510001525 | 10 | 179 | 0.0 | 8.0 | 0.03 | 1.35 | 0.03 | 64 | 1014.0 |
| 20260510000025 | 10 | 219 | 0.0 | 0.0 | 0.00 | 1.32 | 0.00 | 64 | 1013.9 |
| 20260509234523 | 10 | 204 | 0.0 | 0.0 | 0.00 | 1.32 | 0.00 | 64 | 1013.9 |
| 20260509233023 | 10 | 180 | 0.0 | 0.0 | 0.00 | 1.32 | 0.00 | 64 | 1014.0 |
| 20260509231522 | 10 | 176 | 0.0 | 0.0 | 0.00 | 1.32 | 0.00 | 64 | 1014.0 |
| 20260509230021 | 10 | 189 | 0.0 | 0.0 | 0.00 | 1.32 | 0.00 | 64 | 1013.9 |
| 20260509224519 | 10 | 359 | 0.0 | 0.0 | 0.00 | 1.32 | 0.00 | 64 | 1014.0 |
| 20260509223019 | 10 | 176 | 0.0 | 0.0 | 0.00 | 1.32 | 0.00 | 64 | 1013.7 |
| 20260509221518 | 10 | 239 | 0.0 | 0.0 | 0.00 | 1.32 | 0.00 | 64 | 1013.7 |
| 20260509220016 | 10 | 241 | 0.0 | 0.0 | 0.00 | 1.32 | 0.00 | 63 | 1013.7 |
| 20260509214514 | 10 | 239 | 0.0 | 0.0 | 0.03 | 1.32 | 1.32 | 63 | 1013.6 |
| 20260509213017 | 10 | 238 | 0.0 | 0.0 | 0.10 | 1.32 | 1.32 | 63 | 1013.3 |
| 20260509211513 | 10 | 359 | 0.0 | 0.0 | 0.23 | 1.32 | 1.32 | 64 | 1013.3 |